createdAt,value
2022-11-05T00:01:45.679Z,97957.53
2022-11-05T00:04:31.168Z,97955.59
2022-11-05T00:07:17.392Z,97957.72
2022-11-05T00:09:43.688Z,97956.66
2022-11-05T00:12:29.676Z,97958.63
2022-11-05T00:15:14.870Z,97963.81
2022-11-05T00:17:41.275Z,97963.34
2022-11-05T00:20:08.076Z,97979.56
2022-11-05T00:22:53.147Z,97972.00
2022-11-05T00:25:19.617Z,97973.34
2022-11-05T00:27:46.525Z,97972.53
2022-11-05T00:30:13.666Z,97987.88
2022-11-05T00:32:40.322Z,97986.47
2022-11-05T00:35:07.202Z,97979.09
2022-11-05T00:37:33.515Z,97980.16
2022-11-05T00:39:59.821Z,97982.03
2022-11-05T00:42:44.848Z,97986.94
2022-11-05T00:45:11.471Z,97984.19
2022-11-05T00:47:56.516Z,97982.97
2022-11-05T00:50:22.822Z,97980.09
2022-11-05T00:52:55.857Z,97982.59
2022-11-05T00:55:25.596Z,97982.00
2022-11-05T00:57:51.973Z,97983.81
2022-11-05T01:00:18.496Z,97988.19
2022-11-05T01:02:44.953Z,97985.50
2022-11-05T01:05:11.314Z,97986.56
2022-11-05T01:07:37.618Z,97993.16
2022-11-05T01:10:04.034Z,97994.97
2022-11-05T01:12:30.805Z,97994.84
2022-11-05T01:14:57.115Z,97999.22
2022-11-05T01:17:23.660Z,98004.94
2022-11-05T01:19:49.968Z,98000.59
2022-11-05T01:22:16.282Z,98006.34
2022-11-05T01:24:42.607Z,98007.16
2022-11-05T01:27:09.161Z,98013.00
2022-11-05T01:29:35.545Z,98010.84
2022-11-05T01:32:01.859Z,98011.72
2022-11-05T01:34:28.171Z,98017.69
2022-11-05T01:36:54.481Z,98016.63
2022-11-05T01:39:20.779Z,98008.28
2022-11-05T01:41:47.195Z,98018.38
2022-11-05T01:44:32.028Z,98026.22
2022-11-05T01:46:58.338Z,98020.75
2022-11-05T01:49:27.223Z,98028.81
2022-11-05T01:51:55.696Z,98027.16
2022-11-05T01:54:23.042Z,98027.34
2022-11-05T01:56:50.356Z,98020.03
2022-11-05T01:59:19.747Z,98031.34
2022-11-05T02:01:46.390Z,98036.53
2022-11-05T02:04:14.723Z,98046.81
2022-11-05T02:06:46.492Z,98042.63
2022-11-05T02:09:13.755Z,98047.81
2022-11-05T02:11:40.084Z,98042.16
2022-11-05T02:14:06.395Z,98049.44
2022-11-05T02:16:40.419Z,98054.69
2022-11-05T02:19:25.480Z,98064.72
2022-11-05T02:21:58.187Z,98067.66
2022-11-05T02:24:44.931Z,98060.56
2022-11-05T02:27:14.005Z,98066.06
2022-11-05T02:29:49.800Z,98066.69
2022-11-05T02:32:16.333Z,98073.19
2022-11-05T02:35:02.248Z,98074.63
2022-11-05T02:37:39.140Z,98077.03
2022-11-05T02:40:10.898Z,98078.38
2022-11-05T02:42:54.918Z,98075.28
2022-11-05T02:45:24.206Z,98077.72
2022-11-05T02:47:50.477Z,98090.47
2022-11-05T02:50:22.073Z,98102.16
2022-11-05T02:52:56.360Z,98101.34
2022-11-05T02:55:39.966Z,98086.78
2022-11-05T02:58:06.312Z,98098.56
2022-11-05T03:00:35.848Z,98102.00
2022-11-05T03:03:02.266Z,98102.97
2022-11-05T03:05:30.723Z,98113.00
2022-11-05T03:07:58.790Z,98107.03
2022-11-05T03:10:40.145Z,98101.69
2022-11-05T03:13:11.032Z,98105.53
2022-11-05T03:15:52.797Z,98114.94
2022-11-05T03:18:37.857Z,98110.72
2022-11-05T03:21:19.579Z,98111.88
2022-11-05T03:23:45.970Z,98115.94
2022-11-05T03:26:12.257Z,98112.84
2022-11-05T03:28:38.885Z,98118.84
2022-11-05T03:31:05.372Z,98117.72
2022-11-05T03:33:32.388Z,98123.38
2022-11-05T03:36:00.358Z,98125.97
2022-11-05T03:38:31.429Z,98124.84
2022-11-05T03:40:58.952Z,98132.78
2022-11-05T03:43:27.382Z,98133.09
2022-11-05T03:45:56.204Z,98144.59
2022-11-05T03:48:22.721Z,98152.38
2022-11-05T03:51:07.790Z,98150.94
2022-11-05T03:53:37.144Z,98147.69
2022-11-05T03:56:06.987Z,98147.66
2022-11-05T03:58:33.312Z,98160.47
2022-11-05T04:01:01.117Z,98161.91
2022-11-05T04:03:27.448Z,98162.41
2022-11-05T04:06:14.088Z,98166.78
2022-11-05T04:08:59.064Z,98170.50
2022-11-05T04:11:43.959Z,98181.31
2022-11-05T04:14:10.277Z,98186.06
2022-11-05T04:16:55.498Z,98194.31
2022-11-05T04:19:41.793Z,98189.13
2022-11-05T04:22:26.871Z,98194.75
2022-11-05T04:24:53.171Z,98184.75
2022-11-05T04:27:19.746Z,98184.41
2022-11-05T04:30:04.763Z,98189.09
2022-11-05T04:32:31.134Z,98191.69
2022-11-05T04:34:57.487Z,98187.66
2022-11-05T04:37:23.800Z,98189.72
2022-11-05T04:39:50.110Z,98195.25
2022-11-05T04:42:18.753Z,98198.81
2022-11-05T04:44:45.062Z,98200.94
2022-11-05T04:47:11.363Z,98201.25
2022-11-05T04:49:37.679Z,98195.13
2022-11-05T04:52:03.985Z,98197.66
2022-11-05T04:54:30.831Z,98194.13
2022-11-05T04:56:57.372Z,98197.84
2022-11-05T04:59:23.979Z,98200.44
2022-11-05T05:01:53.319Z,98209.03
2022-11-05T05:04:20.612Z,98207.88
2022-11-05T05:06:46.923Z,98217.91
2022-11-05T05:09:14.310Z,98212.41
2022-11-05T05:11:41.053Z,98214.06
2022-11-05T05:14:07.371Z,98216.16
2022-11-05T05:16:33.692Z,98222.97
2022-11-05T05:18:59.998Z,98222.50
2022-11-05T05:21:42.154Z,98225.25
2022-11-05T05:24:09.422Z,98228.34
2022-11-05T05:26:39.379Z,98237.56
2022-11-05T05:29:06.107Z,98226.06
2022-11-05T05:31:32.652Z,98236.78
2022-11-05T05:33:58.957Z,98240.66
2022-11-05T05:36:25.316Z,98232.41
2022-11-05T05:38:51.643Z,98241.31
2022-11-05T05:41:18.022Z,98250.19
2022-11-05T05:43:44.402Z,98252.97
2022-11-05T05:46:11.319Z,98265.63
2022-11-05T05:48:37.627Z,98262.50
2022-11-05T05:51:04.409Z,98269.31
2022-11-05T05:53:30.934Z,98272.56
2022-11-05T05:55:57.257Z,98281.47
2022-11-05T05:58:24.043Z,98276.47
2022-11-05T06:00:50.359Z,98275.69
2022-11-05T06:03:16.679Z,98277.31
2022-11-05T06:05:43.238Z,98282.19
2022-11-05T06:08:09.904Z,98279.25
2022-11-05T06:10:36.244Z,98279.09
2022-11-05T06:13:02.674Z,98275.84
2022-11-05T06:15:33.163Z,98278.28
2022-11-05T06:18:02.122Z,98275.19
2022-11-05T06:20:28.669Z,98285.91
2022-11-05T06:22:58.002Z,98287.19
2022-11-05T06:25:24.517Z,98287.19
2022-11-05T06:27:51.178Z,98292.88
2022-11-05T06:30:17.751Z,98296.94
2022-11-05T06:32:44.686Z,98300.00
2022-11-05T06:35:11.757Z,98298.69
2022-11-05T06:37:38.120Z,98298.53
2022-11-05T06:40:04.682Z,98298.22
2022-11-05T06:42:31.021Z,98308.09
2022-11-05T06:44:57.376Z,98305.19
2022-11-05T06:47:23.698Z,98293.69
2022-11-05T06:49:50.060Z,98317.69
2022-11-05T06:52:16.855Z,98319.13
2022-11-05T06:54:43.795Z,98328.53
2022-11-05T06:57:10.329Z,98319.78
2022-11-05T06:59:37.079Z,98337.63
2022-11-05T07:02:03.559Z,98333.09
2022-11-05T07:04:30.033Z,98335.16
2022-11-05T07:06:56.336Z,98342.31
2022-11-05T07:09:23.023Z,98349.25
2022-11-05T07:11:49.329Z,98353.00
2022-11-05T07:14:15.633Z,98352.97
2022-11-05T07:16:41.950Z,98360.59
2022-11-05T07:19:08.306Z,98364.66
2022-11-05T07:21:34.636Z,98360.25
2022-11-05T07:24:01.268Z,98368.72
2022-11-05T07:26:33.385Z,98357.84
2022-11-05T07:29:00.785Z,98359.44
2022-11-05T07:31:27.102Z,98356.38
2022-11-05T07:33:53.447Z,98348.09
2022-11-05T07:36:20.083Z,98358.94
2022-11-05T07:38:46.389Z,98358.09
2022-11-05T07:41:12.689Z,98356.09
2022-11-05T07:43:39.004Z,98356.53
2022-11-05T07:46:08.601Z,98358.06
2022-11-05T07:48:37.571Z,98349.94
2022-11-05T07:51:03.971Z,98346.50
2022-11-05T07:53:30.277Z,98339.19
2022-11-05T07:55:58.823Z,98340.19
2022-11-05T07:58:25.204Z,98335.81
2022-11-05T08:00:51.688Z,98337.34
2022-11-05T08:03:21.040Z,98339.44
2022-11-05T08:05:47.715Z,98331.75
2022-11-05T08:08:14.785Z,98331.19
2022-11-05T08:10:41.151Z,98324.59
2022-11-05T08:13:07.626Z,98327.06
2022-11-05T08:15:33.994Z,98333.59
2022-11-05T08:18:00.781Z,98336.53
2022-11-05T08:20:27.512Z,98338.94
2022-11-05T08:22:54.680Z,98334.56
2022-11-05T08:25:21.028Z,98340.91
2022-11-05T08:27:47.423Z,98330.06
2022-11-05T08:30:13.792Z,98346.41
2022-11-05T08:32:40.117Z,98343.50
2022-11-05T08:35:06.575Z,98347.50
2022-11-05T08:37:32.891Z,98352.06
2022-11-05T08:39:59.193Z,98348.81
2022-11-05T08:42:25.538Z,98341.72
2022-11-05T08:44:52.085Z,98337.28
2022-11-05T08:47:18.658Z,98333.88
2022-11-05T08:49:44.966Z,98341.16
2022-11-05T08:52:11.293Z,98341.47
2022-11-05T08:54:37.601Z,98342.38
2022-11-05T08:57:04.139Z,98341.41
2022-11-05T08:59:31.401Z,98341.00
2022-11-05T09:01:57.824Z,98336.44
2022-11-05T09:04:28.198Z,98334.44
2022-11-05T09:06:54.506Z,98327.09
2022-11-05T09:09:20.821Z,98325.34
2022-11-05T09:14:26.904Z,98327.28
2022-11-05T09:16:53.385Z,98331.16
2022-11-05T09:19:19.713Z,98329.38
2022-11-05T09:21:46.017Z,98330.81
2022-11-05T09:24:12.326Z,98327.06
2022-11-05T09:26:38.627Z,98326.06
2022-11-05T09:29:04.981Z,98330.34
2022-11-05T09:31:31.289Z,98340.06
2022-11-05T09:33:57.621Z,98351.38
2022-11-05T09:36:23.931Z,98347.16
2022-11-05T09:38:50.256Z,98357.59
2022-11-05T09:41:36.822Z,98356.63
2022-11-05T09:44:03.200Z,98370.31
2022-11-05T09:46:40.746Z,98375.59
2022-11-05T09:49:07.566Z,98373.00
2022-11-05T09:51:35.856Z,98368.47
2022-11-05T09:54:02.248Z,98382.41
2022-11-05T09:56:29.609Z,98380.47
2022-11-05T09:58:58.138Z,98382.19
2022-11-05T10:01:26.022Z,98384.75
2022-11-05T10:03:53.909Z,98387.59
2022-11-05T10:06:21.222Z,98378.69
2022-11-05T10:08:49.361Z,98381.19
2022-11-05T10:11:17.216Z,98378.03
2022-11-05T10:13:45.398Z,98375.38
2022-11-05T10:16:30.916Z,98375.44
2022-11-05T10:18:58.618Z,98372.03
2022-11-05T10:21:51.358Z,98371.81
2022-11-05T10:24:20.647Z,98378.31
2022-11-05T10:26:47.759Z,98367.94
2022-11-05T10:29:14.549Z,98363.81
2022-11-05T10:31:40.864Z,98376.78
2022-11-05T10:34:07.960Z,98376.13
2022-11-05T10:36:35.189Z,98373.63
2022-11-05T10:39:09.652Z,98368.00
2022-11-05T10:41:54.666Z,98368.59
2022-11-05T10:44:37.808Z,98371.09
2022-11-05T10:47:16.380Z,98361.84
2022-11-05T10:49:52.003Z,98362.91
2022-11-05T10:52:22.531Z,98360.38
2022-11-05T10:54:48.859Z,98368.00
2022-11-05T10:57:30.647Z,98360.75
2022-11-05T11:00:15.489Z,98369.38
2022-11-05T11:02:47.904Z,98357.22
2022-11-05T11:05:33.008Z,98360.25
2022-11-05T11:08:03.869Z,98362.13
2022-11-05T11:10:31.095Z,98376.19
2022-11-05T11:12:57.532Z,98360.16
2022-11-05T11:15:26.011Z,98362.47
2022-11-05T11:17:52.533Z,98362.81
2022-11-05T11:20:31.672Z,98365.03
2022-11-05T11:23:04.282Z,98370.78
2022-11-05T11:25:39.943Z,98366.31
2022-11-05T11:28:06.359Z,98364.56
2022-11-05T11:30:33.754Z,98365.38
2022-11-05T11:33:04.497Z,98362.66
2022-11-05T11:35:30.804Z,98361.25
2022-11-05T11:37:57.678Z,98364.59
2022-11-05T11:40:24.614Z,98364.25
2022-11-05T11:42:51.958Z,98360.41
2022-11-05T11:45:18.241Z,98355.72
2022-11-05T11:47:44.852Z,98356.44
2022-11-05T11:50:29.895Z,98352.47
2022-11-05T11:52:56.222Z,98349.03
2022-11-05T11:55:22.901Z,98354.91
2022-11-05T11:57:53.421Z,98362.16
2022-11-05T12:00:20.345Z,98356.97
2022-11-05T12:02:49.315Z,98355.25
2022-11-05T12:05:24.888Z,98361.03
2022-11-05T12:07:53.022Z,98347.06
2022-11-05T12:10:34.184Z,98345.13
2022-11-05T12:13:00.479Z,98345.97
2022-11-05T12:15:45.565Z,98342.69
2022-11-05T12:18:30.725Z,98335.78
2022-11-05T12:20:59.835Z,98333.09
2022-11-05T12:23:26.138Z,98336.41
2022-11-05T12:25:55.339Z,98324.50
2022-11-05T12:29:04.788Z,98330.97
2022-11-05T12:31:34.162Z,98318.97
2022-11-05T12:34:06.627Z,98326.78
2022-11-05T12:36:53.185Z,98332.22
2022-11-05T12:39:19.561Z,98317.28
2022-11-05T12:41:59.923Z,98317.09
2022-11-05T12:44:46.521Z,98325.06
2022-11-05T12:47:16.517Z,98311.88
2022-11-05T12:49:42.881Z,98330.50
2022-11-05T12:52:12.168Z,98337.66
2022-11-05T12:54:58.426Z,98340.81
2022-11-05T12:57:24.778Z,98327.66
2022-11-05T13:00:02.280Z,98335.22
2022-11-05T13:02:43.942Z,98337.97
2022-11-05T13:05:10.220Z,98346.16
2022-11-05T13:07:38.454Z,98333.34
2022-11-05T13:10:10.407Z,98343.75
2022-11-05T13:12:37.553Z,98332.22
2022-11-05T13:15:05.346Z,98330.34
2022-11-05T13:17:43.457Z,98322.16
2022-11-05T13:20:17.392Z,98334.06
2022-11-05T13:23:14.872Z,98337.31
2022-11-05T13:25:45.325Z,98326.91
2022-11-05T13:28:19.472Z,98331.06
2022-11-05T13:30:46.538Z,98334.63
2022-11-05T13:33:15.881Z,98327.72
2022-11-05T13:35:46.436Z,98332.78
2022-11-05T13:38:34.259Z,98334.28
2022-11-05T13:41:12.591Z,98328.72
2022-11-05T13:43:52.816Z,98327.91
2022-11-05T13:46:19.356Z,98332.31
2022-11-05T13:49:24.319Z,98328.59
2022-11-05T13:52:13.717Z,98325.63
2022-11-05T13:54:47.139Z,98323.78
2022-11-05T13:57:35.315Z,98324.22
2022-11-05T14:00:31.066Z,98335.66
2022-11-05T14:02:58.091Z,98326.78
2022-11-05T14:05:28.825Z,98334.50
2022-11-05T14:07:55.251Z,98329.56
2022-11-05T14:10:24.757Z,98328.75
2022-11-05T14:12:51.300Z,98329.78
2022-11-05T14:15:25.589Z,98325.63
2022-11-05T14:17:55.004Z,98320.31
2022-11-05T14:20:30.474Z,98322.41
2022-11-05T14:23:16.078Z,98320.78
2022-11-05T14:25:43.586Z,98319.50
2022-11-05T14:28:28.753Z,98326.88
2022-11-05T14:30:55.492Z,98328.16
2022-11-05T14:33:24.938Z,98329.91
2022-11-05T14:36:12.403Z,98336.13
2022-11-05T14:38:38.842Z,98332.56
2022-11-05T14:41:05.259Z,98331.28
2022-11-05T14:43:32.113Z,98332.63
2022-11-05T14:46:00.588Z,98328.03
2022-11-05T14:48:50.221Z,98329.19
2022-11-05T14:51:22.730Z,98330.66
2022-11-05T14:53:49.040Z,98333.22
2022-11-05T14:56:16.489Z,98333.53
2022-11-05T14:58:43.574Z,98327.50
2022-11-05T15:01:29.951Z,98339.38
2022-11-05T15:04:00.728Z,98347.41
2022-11-05T15:06:30.106Z,98341.78
2022-11-05T15:09:04.231Z,98349.97
2022-11-05T15:11:32.814Z,98342.63
2022-11-05T15:14:04.183Z,98342.72
2022-11-05T15:16:37.645Z,98335.19
2022-11-05T15:19:04.358Z,98346.59
2022-11-05T15:21:31.941Z,98348.06
2022-11-05T15:23:58.295Z,98339.66
2022-11-05T15:26:57.110Z,98333.50
2022-11-05T15:29:24.902Z,98339.78
2022-11-05T15:31:51.621Z,98344.75
2022-11-05T15:34:22.618Z,98352.56
2022-11-05T15:36:50.072Z,98333.44
2022-11-05T15:39:30.466Z,98344.56
2022-11-05T15:41:57.479Z,98350.81
2022-11-05T15:44:24.671Z,98339.69
2022-11-05T15:47:04.113Z,98334.31
2022-11-05T15:49:31.915Z,98343.44
2022-11-05T15:51:58.230Z,98335.50
2022-11-05T15:54:30.089Z,98329.81
2022-11-05T15:56:57.766Z,98322.00
2022-11-05T15:59:24.614Z,98317.63
2022-11-05T16:01:56.479Z,98323.53
2022-11-05T16:04:24.438Z,98306.31
2022-11-05T16:06:51.502Z,98310.28
2022-11-05T16:09:27.802Z,98307.88
2022-11-05T16:12:14.388Z,98314.13
2022-11-05T16:14:40.949Z,98318.50
2022-11-05T16:17:17.031Z,98325.31
2022-11-05T16:19:43.353Z,98325.16
2022-11-05T16:22:17.090Z,98318.00
2022-11-05T16:24:43.584Z,98319.84
2022-11-05T16:27:38.090Z,98324.88
2022-11-05T16:30:04.632Z,98324.88
2022-11-05T16:32:31.682Z,98324.72
2022-11-05T16:34:58.161Z,98323.91
2022-11-05T16:37:25.045Z,98322.94
2022-11-05T16:39:51.617Z,98325.53
2022-11-05T16:42:24.607Z,98329.91
2022-11-05T16:44:51.132Z,98328.97
2022-11-05T16:47:18.704Z,98328.94
2022-11-05T16:49:45.121Z,98332.69
2022-11-05T16:52:12.048Z,98338.41
2022-11-05T16:54:38.504Z,98346.66
2022-11-05T16:57:05.210Z,98339.38
2022-11-05T16:59:31.922Z,98339.06
2022-11-05T17:02:00.716Z,98338.72
2022-11-05T17:04:27.518Z,98350.88
2022-11-05T17:06:53.840Z,98344.06
2022-11-05T17:09:20.529Z,98341.16
2022-11-05T17:11:46.855Z,98343.09
2022-11-05T17:14:13.577Z,98341.50
2022-11-05T17:16:40.051Z,98351.41
2022-11-05T17:19:07.344Z,98354.47
2022-11-05T17:21:33.669Z,98357.72
2022-11-05T17:23:59.996Z,98356.25
2022-11-05T17:26:26.392Z,98365.03
2022-11-05T17:28:52.709Z,98354.13
2022-11-05T17:31:19.014Z,98358.66
2022-11-05T17:33:45.451Z,98360.47
2022-11-05T17:36:18.642Z,98358.22
2022-11-05T17:38:44.985Z,98349.47
2022-11-05T17:41:14.977Z,98356.09
2022-11-05T17:43:41.315Z,98356.44
2022-11-05T17:46:08.858Z,98364.19
2022-11-05T17:48:35.491Z,98364.03
2022-11-05T17:51:02.051Z,98366.47
2022-11-05T17:53:34.003Z,98360.47
2022-11-05T17:56:00.324Z,98365.97
2022-11-05T17:58:26.899Z,98357.38
2022-11-05T18:00:53.246Z,98361.47
2022-11-05T18:03:19.627Z,98365.03
2022-11-05T18:05:46.390Z,98363.41
2022-11-05T18:08:15.186Z,98361.78
2022-11-05T18:10:42.781Z,98364.69
2022-11-05T18:13:09.584Z,98359.84
2022-11-05T18:15:40.790Z,98360.00
2022-11-05T18:18:08.118Z,98357.56
2022-11-05T18:20:34.435Z,98356.91
2022-11-05T18:23:01.018Z,98349.44
2022-11-05T18:25:27.748Z,98340.22
2022-11-05T18:27:55.120Z,98347.00
2022-11-05T18:30:23.877Z,98344.56
2022-11-05T18:32:51.361Z,98344.75
2022-11-05T18:35:17.839Z,98345.06
2022-11-05T18:37:44.228Z,98345.72
2022-11-05T18:40:10.675Z,98345.41
2022-11-05T18:42:37.249Z,98347.50
2022-11-05T18:45:04.881Z,98342.97
2022-11-05T18:47:32.747Z,98341.69
2022-11-05T18:49:59.401Z,98339.72
2022-11-05T18:52:26.552Z,98344.09
2022-11-05T18:54:52.943Z,98341.16
2022-11-05T18:57:19.544Z,98333.41
2022-11-05T18:59:46.671Z,98333.41
2022-11-05T19:02:13.625Z,98331.78
2022-11-05T19:04:43.962Z,98332.28
2022-11-05T19:07:23.775Z,98340.69
2022-11-05T19:09:50.085Z,98351.25
2022-11-05T19:12:16.752Z,98349.75
2022-11-05T19:14:44.603Z,98348.63
2022-11-05T19:17:12.151Z,98351.25
2022-11-05T19:19:38.941Z,98344.56
2022-11-05T19:22:05.492Z,98348.13
2022-11-05T19:24:31.809Z,98349.47
2022-11-05T19:26:59.305Z,98347.03
2022-11-05T19:29:25.730Z,98348.13
2022-11-05T19:31:54.438Z,98338.09
2022-11-05T19:34:21.078Z,98334.38
2022-11-05T19:36:47.829Z,98336.81
2022-11-05T19:39:16.722Z,98331.28
2022-11-05T19:41:44.642Z,98335.47
2022-11-05T19:44:10.988Z,98331.28
2022-11-05T19:46:37.333Z,98325.28
2022-11-05T19:49:03.679Z,98324.16
2022-11-05T19:51:31.785Z,98328.38
2022-11-05T19:53:59.774Z,98332.44
2022-11-05T19:56:28.466Z,98326.75
2022-11-05T19:58:54.906Z,98323.84
2022-11-05T20:01:22.239Z,98333.72
2022-11-05T20:03:48.736Z,98333.88
2022-11-05T20:06:16.469Z,98342.31
2022-11-05T20:09:07.120Z,98337.28
2022-11-05T20:11:31.822Z,98325.63
2022-11-05T20:13:58.402Z,98336.63
2022-11-05T20:16:26.702Z,98339.06
2022-11-05T20:18:54.478Z,98331.91
2022-11-05T20:21:28.231Z,98337.41
2022-11-05T20:23:55.897Z,98330.28
2022-11-05T20:26:22.230Z,98326.75
2022-11-05T20:28:51.672Z,98329.34
2022-11-05T20:31:18.302Z,98334.31
2022-11-05T20:33:46.156Z,98337.19
2022-11-05T20:36:13.693Z,98338.47
2022-11-05T20:38:40.393Z,98344.41
2022-11-05T20:41:07.780Z,98331.97
2022-11-05T20:43:34.135Z,98344.44
2022-11-05T20:46:01.763Z,98333.94
2022-11-05T20:48:30.203Z,98329.72
2022-11-05T20:50:56.926Z,98333.16
2022-11-05T20:53:23.257Z,98334.97
2022-11-05T20:55:49.714Z,98329.78
2022-11-05T20:58:16.739Z,98338.69
2022-11-05T21:00:51.183Z,98336.78
2022-11-05T21:03:18.039Z,98338.03
2022-11-05T21:05:45.473Z,98338.41
2022-11-05T21:08:12.058Z,98343.19
2022-11-05T21:10:39.176Z,98342.41
2022-11-05T21:13:06.573Z,98338.84
2022-11-05T21:15:32.913Z,98343.72
2022-11-05T21:18:01.037Z,98351.22
2022-11-05T21:20:31.826Z,98353.66
2022-11-05T21:22:58.163Z,98357.91
2022-11-05T21:25:24.707Z,98357.25
2022-11-05T21:27:51.047Z,98351.72
2022-11-05T21:30:17.377Z,98348.97
2022-11-05T21:32:45.436Z,98358.53
2022-11-05T21:35:13.169Z,98358.22
2022-11-05T21:37:40.974Z,98360.63
2022-11-05T21:40:07.821Z,98361.69
2022-11-05T21:42:34.651Z,98365.41
2022-11-05T21:45:01.409Z,98360.56
2022-11-05T21:47:31.033Z,98362.00
2022-11-05T21:49:57.432Z,98362.31
2022-11-05T21:52:42.498Z,98353.00
2022-11-05T21:55:30.199Z,98355.31
2022-11-05T21:58:15.453Z,98350.75
2022-11-05T22:00:41.877Z,98343.88
2022-11-05T22:03:08.254Z,98348.63
2022-11-05T22:05:34.609Z,98347.66
2022-11-05T22:08:01.326Z,98345.28
2022-11-05T22:10:28.084Z,98345.38
2022-11-05T22:12:54.483Z,98336.41
2022-11-05T22:15:20.819Z,98341.63
2022-11-05T22:17:50.314Z,98336.47
2022-11-05T22:20:17.101Z,98335.13
2022-11-05T22:22:43.750Z,98334.03
2022-11-05T22:25:10.461Z,98335.16
2022-11-05T22:27:36.879Z,98333.09
2022-11-05T22:30:03.717Z,98334.38
2022-11-05T22:32:30.276Z,98328.94
2022-11-05T22:34:56.657Z,98327.59
2022-11-05T22:37:23.049Z,98332.13
2022-11-05T22:39:49.406Z,98326.66
2022-11-05T22:42:20.276Z,98322.94
2022-11-05T22:44:47.361Z,98318.09
2022-11-05T22:47:14.064Z,98316.00
2022-11-05T22:49:40.381Z,98311.78
2022-11-05T22:52:14.320Z,98308.38
2022-11-05T22:54:40.657Z,98304.00
2022-11-05T22:57:08.693Z,98302.69
2022-11-05T22:59:35.036Z,98303.19
2022-11-05T23:02:08.245Z,98304.53
2022-11-05T23:04:36.007Z,98305.66
2022-11-05T23:07:27.042Z,98300.31
2022-11-05T23:10:13.015Z,98297.41
2022-11-05T23:12:39.374Z,98292.69
2022-11-05T23:15:06.727Z,98282.47
2022-11-05T23:17:51.849Z,98283.94
2022-11-05T23:20:37.898Z,98285.53
2022-11-05T23:23:22.828Z,98281.31
2022-11-05T23:25:49.574Z,98290.88
2022-11-05T23:28:21.133Z,98286.03
2022-11-05T23:31:06.781Z,98276.63
2022-11-05T23:33:33.496Z,98283.44
2022-11-05T23:36:18.448Z,98275.19
2022-11-05T23:38:45.136Z,98276.50
2022-11-05T23:41:30.121Z,98269.50
2022-11-05T23:44:15.128Z,98278.88
2022-11-05T23:47:00.471Z,98271.09
2022-11-05T23:49:26.839Z,98270.28
2022-11-05T23:51:54.856Z,98267.88
2022-11-05T23:54:22.890Z,98261.88
2022-11-05T23:56:49.602Z,98254.91
2022-11-05T23:59:15.925Z,98255.25
